sensor_id;sensor_type;location;lat;lon;timestamp;P1;durP1;ratioP1;P2;durP2;ratioP2
32292;SDS011;43233;48.608;8.838;2022-07-23T00:00:49;5.50;;;4.60;;
32292;SDS011;43233;48.608;8.838;2022-07-23T00:03:15;5.50;;;4.17;;
32292;SDS011;43233;48.608;8.838;2022-07-23T00:05:41;6.27;;;4.43;;
32292;SDS011;43233;48.608;8.838;2022-07-23T00:08:06;4.50;;;4.20;;
32292;SDS011;43233;48.608;8.838;2022-07-23T00:10:33;5.07;;;4.67;;
32292;SDS011;43233;48.608;8.838;2022-07-23T00:12:59;5.67;;;4.30;;
32292;SDS011;43233;48.608;8.838;2022-07-23T00:15:24;8.20;;;4.40;;
32292;SDS011;43233;48.608;8.838;2022-07-23T00:17:50;11.53;;;4.63;;
32292;SDS011;43233;48.608;8.838;2022-07-23T00:20:16;5.60;;;4.57;;
32292;SDS011;43233;48.608;8.838;2022-07-23T00:22:45;4.90;;;4.30;;
32292;SDS011;43233;48.608;8.838;2022-07-23T00:25:12;6.97;;;4.63;;
32292;SDS011;43233;48.608;8.838;2022-07-23T00:27:38;4.27;;;3.87;;
32292;SDS011;43233;48.608;8.838;2022-07-23T00:30:03;4.90;;;4.50;;
32292;SDS011;43233;48.608;8.838;2022-07-23T00:32:29;4.70;;;4.30;;
32292;SDS011;43233;48.608;8.838;2022-07-23T00:34:55;7.80;;;4.57;;
32292;SDS011;43233;48.608;8.838;2022-07-23T00:37:21;5.00;;;4.53;;
32292;SDS011;43233;48.608;8.838;2022-07-23T00:39:46;11.43;;;5.30;;
32292;SDS011;43233;48.608;8.838;2022-07-23T00:42:12;6.37;;;4.50;;
32292;SDS011;43233;48.608;8.838;2022-07-23T00:44:37;4.70;;;4.30;;
32292;SDS011;43233;48.608;8.838;2022-07-23T00:47:03;4.33;;;4.03;;
32292;SDS011;43233;48.608;8.838;2022-07-23T00:49:30;5.80;;;4.53;;
32292;SDS011;43233;48.608;8.838;2022-07-23T00:51:56;6.43;;;5.10;;
32292;SDS011;43233;48.608;8.838;2022-07-23T00:54:23;6.93;;;5.00;;
32292;SDS011;43233;48.608;8.838;2022-07-23T00:56:51;5.63;;;5.07;;
32292;SDS011;43233;48.608;8.838;2022-07-23T00:59:17;5.00;;;4.40;;
32292;SDS011;43233;48.608;8.838;2022-07-23T01:01:42;4.10;;;3.80;;
32292;SDS011;43233;48.608;8.838;2022-07-23T01:04:13;8.33;;;4.90;;
32292;SDS011;43233;48.608;8.838;2022-07-23T01:06:40;5.27;;;4.40;;
32292;SDS011;43233;48.608;8.838;2022-07-23T01:09:06;5.30;;;4.27;;
32292;SDS011;43233;48.608;8.838;2022-07-23T01:11:33;4.57;;;4.17;;
32292;SDS011;43233;48.608;8.838;2022-07-23T01:14:13;5.07;;;4.67;;
32292;SDS011;43233;48.608;8.838;2022-07-23T01:16:41;4.63;;;4.27;;
32292;SDS011;43233;48.608;8.838;2022-07-23T01:19:08;5.30;;;4.40;;
32292;SDS011;43233;48.608;8.838;2022-07-23T01:21:39;5.17;;;4.40;;
32292;SDS011;43233;48.608;8.838;2022-07-23T01:24:07;4.83;;;4.43;;
32292;SDS011;43233;48.608;8.838;2022-07-23T01:26:33;6.10;;;4.87;;
32292;SDS011;43233;48.608;8.838;2022-07-23T01:28:59;6.00;;;4.67;;
32292;SDS011;43233;48.608;8.838;2022-07-23T01:31:25;5.33;;;4.83;;
32292;SDS011;43233;48.608;8.838;2022-07-23T01:33:51;4.30;;;3.90;;
32292;SDS011;43233;48.608;8.838;2022-07-23T01:36:17;5.20;;;4.70;;
32292;SDS011;43233;48.608;8.838;2022-07-23T01:38:42;7.47;;;4.33;;
32292;SDS011;43233;48.608;8.838;2022-07-23T01:41:08;8.30;;;4.83;;
32292;SDS011;43233;48.608;8.838;2022-07-23T01:43:33;4.90;;;4.43;;
32292;SDS011;43233;48.608;8.838;2022-07-23T01:45:59;5.43;;;4.90;;
32292;SDS011;43233;48.608;8.838;2022-07-23T01:48:25;4.20;;;3.73;;
32292;SDS011;43233;48.608;8.838;2022-07-23T01:50:50;5.40;;;4.90;;
32292;SDS011;43233;48.608;8.838;2022-07-23T01:53:16;4.33;;;4.00;;
32292;SDS011;43233;48.608;8.838;2022-07-23T01:55:42;4.20;;;3.90;;
32292;SDS011;43233;48.608;8.838;2022-07-23T01:58:08;5.03;;;4.63;;
32292;SDS011;43233;48.608;8.838;2022-07-23T02:00:34;5.30;;;4.33;;
32292;SDS011;43233;48.608;8.838;2022-07-23T02:02:59;7.63;;;4.53;;
32292;SDS011;43233;48.608;8.838;2022-07-23T02:05:25;5.10;;;4.70;;
32292;SDS011;43233;48.608;8.838;2022-07-23T02:07:53;6.27;;;5.53;;
32292;SDS011;43233;48.608;8.838;2022-07-23T02:10:19;8.43;;;4.37;;
32292;SDS011;43233;48.608;8.838;2022-07-23T02:12:45;10.03;;;5.47;;
32292;SDS011;43233;48.608;8.838;2022-07-23T02:15:11;4.83;;;4.43;;
32292;SDS011;43233;48.608;8.838;2022-07-23T02:17:37;7.00;;;5.23;;
32292;SDS011;43233;48.608;8.838;2022-07-23T02:20:03;4.13;;;3.70;;
32292;SDS011;43233;48.608;8.838;2022-07-23T02:22:29;4.97;;;4.33;;
32292;SDS011;43233;48.608;8.838;2022-07-23T02:24:55;7.77;;;4.77;;
32292;SDS011;43233;48.608;8.838;2022-07-23T02:27:21;5.77;;;5.17;;
32292;SDS011;43233;48.608;8.838;2022-07-23T02:29:46;5.60;;;4.67;;
32292;SDS011;43233;48.608;8.838;2022-07-23T02:32:12;6.63;;;4.00;;
32292;SDS011;43233;48.608;8.838;2022-07-23T02:34:38;4.80;;;4.40;;
32292;SDS011;43233;48.608;8.838;2022-07-23T02:37:03;6.10;;;4.73;;
32292;SDS011;43233;48.608;8.838;2022-07-23T02:39:29;8.00;;;4.30;;
32292;SDS011;43233;48.608;8.838;2022-07-23T02:41:55;4.30;;;3.90;;
32292;SDS011;43233;48.608;8.838;2022-07-23T02:44:20;4.33;;;3.90;;
32292;SDS011;43233;48.608;8.838;2022-07-23T02:46:46;4.17;;;3.87;;
32292;SDS011;43233;48.608;8.838;2022-07-23T02:49:11;5.07;;;4.50;;
32292;SDS011;43233;48.608;8.838;2022-07-23T02:51:37;6.07;;;5.50;;
32292;SDS011;43233;48.608;8.838;2022-07-23T02:54:02;5.70;;;4.50;;
32292;SDS011;43233;48.608;8.838;2022-07-23T02:56:28;6.80;;;5.40;;
32292;SDS011;43233;48.608;8.838;2022-07-23T02:58:54;4.80;;;4.30;;
32292;SDS011;43233;48.608;8.838;2022-07-23T03:01:19;5.07;;;4.60;;
32292;SDS011;43233;48.608;8.838;2022-07-23T03:03:45;5.00;;;4.60;;
32292;SDS011;43233;48.608;8.838;2022-07-23T03:06:10;7.40;;;4.70;;
32292;SDS011;43233;48.608;8.838;2022-07-23T03:08:37;5.90;;;5.30;;
32292;SDS011;43233;48.608;8.838;2022-07-23T03:11:02;5.20;;;4.77;;
32292;SDS011;43233;48.608;8.838;2022-07-23T03:13:28;5.30;;;4.90;;
32292;SDS011;43233;48.608;8.838;2022-07-23T03:15:54;8.97;;;5.57;;
32292;SDS011;43233;48.608;8.838;2022-07-23T03:18:20;5.80;;;5.30;;
32292;SDS011;43233;48.608;8.838;2022-07-23T03:20:45;5.93;;;4.90;;
32292;SDS011;43233;48.608;8.838;2022-07-23T03:23:11;7.73;;;5.10;;
32292;SDS011;43233;48.608;8.838;2022-07-23T03:25:37;5.80;;;5.30;;
32292;SDS011;43233;48.608;8.838;2022-07-23T03:28:02;6.20;;;5.60;;
32292;SDS011;43233;48.608;8.838;2022-07-23T03:30:28;8.50;;;5.30;;
32292;SDS011;43233;48.608;8.838;2022-07-23T03:32:54;5.60;;;5.00;;
32292;SDS011;43233;48.608;8.838;2022-07-23T03:35:19;6.00;;;5.40;;
32292;SDS011;43233;48.608;8.838;2022-07-23T03:37:45;5.40;;;4.90;;
32292;SDS011;43233;48.608;8.838;2022-07-23T03:40:11;5.10;;;4.60;;
32292;SDS011;43233;48.608;8.838;2022-07-23T03:42:36;9.73;;;5.60;;
32292;SDS011;43233;48.608;8.838;2022-07-23T03:45:04;5.33;;;4.93;;
32292;SDS011;43233;48.608;8.838;2022-07-23T03:47:30;5.53;;;5.03;;
32292;SDS011;43233;48.608;8.838;2022-07-23T03:49:56;5.60;;;5.10;;
32292;SDS011;43233;48.608;8.838;2022-07-23T03:52:21;6.30;;;5.70;;
32292;SDS011;43233;48.608;8.838;2022-07-23T03:54:47;6.53;;;5.10;;
32292;SDS011;43233;48.608;8.838;2022-07-23T03:57:13;9.70;;;5.00;;
32292;SDS011;43233;48.608;8.838;2022-07-23T03:59:38;7.50;;;5.63;;
32292;SDS011;43233;48.608;8.838;2022-07-23T04:02:04;6.03;;;5.00;;
32292;SDS011;43233;48.608;8.838;2022-07-23T04:04:29;5.10;;;4.77;;
32292;SDS011;43233;48.608;8.838;2022-07-23T04:06:55;6.87;;;5.57;;
32292;SDS011;43233;48.608;8.838;2022-07-23T04:09:21;6.60;;;6.00;;
32292;SDS011;43233;48.608;8.838;2022-07-23T04:11:46;6.40;;;5.23;;
32292;SDS011;43233;48.608;8.838;2022-07-23T04:14:12;5.73;;;5.00;;
32292;SDS011;43233;48.608;8.838;2022-07-23T04:16:37;5.87;;;5.27;;
32292;SDS011;43233;48.608;8.838;2022-07-23T04:19:03;6.37;;;5.80;;
32292;SDS011;43233;48.608;8.838;2022-07-23T04:21:29;5.70;;;5.23;;
32292;SDS011;43233;48.608;8.838;2022-07-23T04:23:55;7.83;;;6.30;;
32292;SDS011;43233;48.608;8.838;2022-07-23T04:26:21;7.10;;;5.40;;
32292;SDS011;43233;48.608;8.838;2022-07-23T04:28:46;6.00;;;5.20;;
32292;SDS011;43233;48.608;8.838;2022-07-23T04:31:12;5.70;;;4.60;;
32292;SDS011;43233;48.608;8.838;2022-07-23T04:33:38;5.57;;;5.03;;
32292;SDS011;43233;48.608;8.838;2022-07-23T04:36:04;7.33;;;5.70;;
32292;SDS011;43233;48.608;8.838;2022-07-23T04:38:29;6.50;;;5.90;;
32292;SDS011;43233;48.608;8.838;2022-07-23T04:40:55;6.83;;;6.07;;
32292;SDS011;43233;48.608;8.838;2022-07-23T04:43:21;7.37;;;5.63;;
32292;SDS011;43233;48.608;8.838;2022-07-23T04:45:46;5.93;;;5.40;;
32292;SDS011;43233;48.608;8.838;2022-07-23T04:48:12;5.70;;;5.20;;
32292;SDS011;43233;48.608;8.838;2022-07-23T04:50:37;6.70;;;5.90;;
32292;SDS011;43233;48.608;8.838;2022-07-23T04:53:03;9.33;;;5.53;;
32292;SDS011;43233;48.608;8.838;2022-07-23T04:55:29;7.43;;;6.40;;
32292;SDS011;43233;48.608;8.838;2022-07-23T04:57:55;6.30;;;5.70;;
32292;SDS011;43233;48.608;8.838;2022-07-23T05:00:21;7.07;;;6.13;;
32292;SDS011;43233;48.608;8.838;2022-07-23T05:02:46;6.27;;;5.73;;
32292;SDS011;43233;48.608;8.838;2022-07-23T05:05:12;6.63;;;5.90;;
32292;SDS011;43233;48.608;8.838;2022-07-23T05:07:38;5.63;;;5.13;;
32292;SDS011;43233;48.608;8.838;2022-07-23T05:10:04;9.57;;;5.60;;
32292;SDS011;43233;48.608;8.838;2022-07-23T05:12:29;7.17;;;6.30;;
32292;SDS011;43233;48.608;8.838;2022-07-23T05:14:55;7.40;;;6.20;;
32292;SDS011;43233;48.608;8.838;2022-07-23T05:17:21;7.57;;;6.27;;
32292;SDS011;43233;48.608;8.838;2022-07-23T05:19:46;5.80;;;5.23;;
32292;SDS011;43233;48.608;8.838;2022-07-23T05:22:12;12.23;;;5.93;;
32292;SDS011;43233;48.608;8.838;2022-07-23T05:24:38;8.17;;;6.23;;
32292;SDS011;43233;48.608;8.838;2022-07-23T05:27:03;7.07;;;6.30;;
32292;SDS011;43233;48.608;8.838;2022-07-23T05:29:29;5.93;;;5.43;;
32292;SDS011;43233;48.608;8.838;2022-07-23T05:31:54;6.90;;;5.70;;
32292;SDS011;43233;48.608;8.838;2022-07-23T05:34:20;9.00;;;5.57;;
32292;SDS011;43233;48.608;8.838;2022-07-23T05:36:46;7.07;;;6.00;;
32292;SDS011;43233;48.608;8.838;2022-07-23T05:39:11;5.93;;;5.03;;
32292;SDS011;43233;48.608;8.838;2022-07-23T05:41:37;8.03;;;6.00;;
32292;SDS011;43233;48.608;8.838;2022-07-23T05:44:03;5.43;;;5.03;;
32292;SDS011;43233;48.608;8.838;2022-07-23T05:46:40;10.67;;;7.30;;
32292;SDS011;43233;48.608;8.838;2022-07-23T05:49:06;9.60;;;6.77;;
32292;SDS011;43233;48.608;8.838;2022-07-23T05:51:33;5.83;;;5.23;;
32292;SDS011;43233;48.608;8.838;2022-07-23T05:53:58;7.20;;;6.50;;
32292;SDS011;43233;48.608;8.838;2022-07-23T05:56:24;10.23;;;6.63;;
32292;SDS011;43233;48.608;8.838;2022-07-23T05:58:50;6.87;;;6.17;;
32292;SDS011;43233;48.608;8.838;2022-07-23T06:01:15;7.50;;;5.10;;
32292;SDS011;43233;48.608;8.838;2022-07-23T06:03:41;6.83;;;6.10;;
32292;SDS011;43233;48.608;8.838;2022-07-23T06:06:06;7.13;;;6.40;;
32292;SDS011;43233;48.608;8.838;2022-07-23T06:08:32;10.10;;;5.87;;
32292;SDS011;43233;48.608;8.838;2022-07-23T06:10:58;7.00;;;5.50;;
32292;SDS011;43233;48.608;8.838;2022-07-23T06:13:23;6.93;;;6.23;;
32292;SDS011;43233;48.608;8.838;2022-07-23T06:15:49;11.20;;;7.33;;
32292;SDS011;43233;48.608;8.838;2022-07-23T06:18:15;6.73;;;6.10;;
32292;SDS011;43233;48.608;8.838;2022-07-23T06:20:40;6.13;;;5.53;;
32292;SDS011;43233;48.608;8.838;2022-07-23T06:23:06;6.60;;;5.90;;
32292;SDS011;43233;48.608;8.838;2022-07-23T06:25:32;6.60;;;6.00;;
32292;SDS011;43233;48.608;8.838;2022-07-23T06:27:58;8.70;;;6.40;;
32292;SDS011;43233;48.608;8.838;2022-07-23T06:30:23;9.83;;;6.37;;
32292;SDS011;43233;48.608;8.838;2022-07-23T06:32:49;6.73;;;5.67;;
32292;SDS011;43233;48.608;8.838;2022-07-23T06:35:15;8.10;;;6.13;;
32292;SDS011;43233;48.608;8.838;2022-07-23T06:37:41;7.00;;;5.70;;
32292;SDS011;43233;48.608;8.838;2022-07-23T06:40:07;6.80;;;6.20;;
32292;SDS011;43233;48.608;8.838;2022-07-23T06:42:33;7.73;;;5.80;;
32292;SDS011;43233;48.608;8.838;2022-07-23T06:45:01;6.60;;;5.90;;
32292;SDS011;43233;48.608;8.838;2022-07-23T06:47:28;9.17;;;6.50;;
32292;SDS011;43233;48.608;8.838;2022-07-23T06:49:54;7.23;;;6.53;;
32292;SDS011;43233;48.608;8.838;2022-07-23T06:52:19;12.30;;;7.43;;
32292;SDS011;43233;48.608;8.838;2022-07-23T06:54:45;9.80;;;6.90;;
32292;SDS011;43233;48.608;8.838;2022-07-23T06:57:11;10.57;;;6.70;;
32292;SDS011;43233;48.608;8.838;2022-07-23T06:59:36;8.03;;;6.93;;
32292;SDS011;43233;48.608;8.838;2022-07-23T07:02:05;7.53;;;6.63;;
32292;SDS011;43233;48.608;8.838;2022-07-23T07:04:32;11.43;;;7.43;;
32292;SDS011;43233;48.608;8.838;2022-07-23T07:06:57;6.50;;;5.90;;
32292;SDS011;43233;48.608;8.838;2022-07-23T07:09:23;8.00;;;6.20;;
32292;SDS011;43233;48.608;8.838;2022-07-23T07:11:49;6.60;;;6.00;;
32292;SDS011;43233;48.608;8.838;2022-07-23T07:14:14;11.77;;;9.50;;
32292;SDS011;43233;48.608;8.838;2022-07-23T07:16:40;11.90;;;7.77;;
32292;SDS011;43233;48.608;8.838;2022-07-23T07:19:06;8.20;;;5.80;;
32292;SDS011;43233;48.608;8.838;2022-07-23T07:21:37;6.60;;;5.70;;
32292;SDS011;43233;48.608;8.838;2022-07-23T07:24:03;7.10;;;5.67;;
32292;SDS011;43233;48.608;8.838;2022-07-23T07:26:29;9.60;;;6.70;;
32292;SDS011;43233;48.608;8.838;2022-07-23T07:28:55;7.80;;;6.00;;
32292;SDS011;43233;48.608;8.838;2022-07-23T07:31:21;6.50;;;5.90;;
32292;SDS011;43233;48.608;8.838;2022-07-23T07:33:47;6.53;;;5.97;;
32292;SDS011;43233;48.608;8.838;2022-07-23T07:36:13;7.00;;;6.10;;
32292;SDS011;43233;48.608;8.838;2022-07-23T07:38:38;7.73;;;5.40;;
32292;SDS011;43233;48.608;8.838;2022-07-23T07:41:04;9.80;;;4.83;;
32292;SDS011;43233;48.608;8.838;2022-07-23T07:43:30;6.90;;;5.70;;
32292;SDS011;43233;48.608;8.838;2022-07-23T07:45:55;6.17;;;5.10;;
32292;SDS011;43233;48.608;8.838;2022-07-23T07:48:21;5.03;;;4.53;;
32292;SDS011;43233;48.608;8.838;2022-07-23T07:50:47;8.83;;;5.47;;
32292;SDS011;43233;48.608;8.838;2022-07-23T07:53:12;5.93;;;5.33;;
32292;SDS011;43233;48.608;8.838;2022-07-23T07:55:38;7.53;;;5.80;;
32292;SDS011;43233;48.608;8.838;2022-07-23T07:58:04;6.10;;;5.60;;
32292;SDS011;43233;48.608;8.838;2022-07-23T08:00:30;5.60;;;4.73;;
32292;SDS011;43233;48.608;8.838;2022-07-23T08:02:56;6.20;;;5.60;;
32292;SDS011;43233;48.608;8.838;2022-07-23T08:05:22;6.30;;;5.30;;
32292;SDS011;43233;48.608;8.838;2022-07-23T08:07:49;5.20;;;4.77;;
32292;SDS011;43233;48.608;8.838;2022-07-23T08:10:15;7.07;;;5.83;;
32292;SDS011;43233;48.608;8.838;2022-07-23T08:12:43;5.90;;;5.00;;
32292;SDS011;43233;48.608;8.838;2022-07-23T08:15:10;5.13;;;4.73;;
32292;SDS011;43233;48.608;8.838;2022-07-23T08:17:38;7.50;;;5.30;;
32292;SDS011;43233;48.608;8.838;2022-07-23T08:20:04;5.73;;;5.20;;
32292;SDS011;43233;48.608;8.838;2022-07-23T08:22:41;8.10;;;5.90;;
32292;SDS011;43233;48.608;8.838;2022-07-23T08:25:19;4.57;;;4.13;;
32292;SDS011;43233;48.608;8.838;2022-07-23T08:27:48;6.27;;;4.70;;
32292;SDS011;43233;48.608;8.838;2022-07-23T08:30:14;9.00;;;4.83;;
32292;SDS011;43233;48.608;8.838;2022-07-23T08:32:51;8.33;;;4.60;;
32292;SDS011;43233;48.608;8.838;2022-07-23T08:35:27;5.90;;;4.53;;
32292;SDS011;43233;48.608;8.838;2022-07-23T08:38:00;5.43;;;4.93;;
32292;SDS011;43233;48.608;8.838;2022-07-23T08:40:29;7.20;;;5.33;;
32292;SDS011;43233;48.608;8.838;2022-07-23T08:42:56;9.10;;;4.80;;
32292;SDS011;43233;48.608;8.838;2022-07-23T08:45:22;5.10;;;4.50;;
32292;SDS011;43233;48.608;8.838;2022-07-23T08:47:50;6.57;;;5.97;;
32292;SDS011;43233;48.608;8.838;2022-07-23T08:50:20;6.30;;;5.30;;
32292;SDS011;43233;48.608;8.838;2022-07-23T08:52:46;5.37;;;4.87;;
32292;SDS011;43233;48.608;8.838;2022-07-23T08:55:15;10.43;;;6.03;;
32292;SDS011;43233;48.608;8.838;2022-07-23T08:57:42;5.97;;;4.73;;
32292;SDS011;43233;48.608;8.838;2022-07-23T09:00:09;5.43;;;4.90;;
32292;SDS011;43233;48.608;8.838;2022-07-23T09:02:38;5.77;;;5.27;;
32292;SDS011;43233;48.608;8.838;2022-07-23T09:05:09;6.63;;;5.37;;
32292;SDS011;43233;48.608;8.838;2022-07-23T09:07:36;7.57;;;6.03;;
32292;SDS011;43233;48.608;8.838;2022-07-23T09:10:06;6.67;;;5.97;;
32292;SDS011;43233;48.608;8.838;2022-07-23T09:12:33;8.33;;;5.50;;
32292;SDS011;43233;48.608;8.838;2022-07-23T09:15:08;5.10;;;4.70;;
32292;SDS011;43233;48.608;8.838;2022-07-23T09:17:38;5.20;;;4.80;;
32292;SDS011;43233;48.608;8.838;2022-07-23T09:20:12;6.83;;;4.93;;
32292;SDS011;43233;48.608;8.838;2022-07-23T09:22:46;5.37;;;4.90;;
32292;SDS011;43233;48.608;8.838;2022-07-23T09:27:51;7.93;;;5.17;;
32292;SDS011;43233;48.608;8.838;2022-07-23T09:30:20;5.50;;;5.00;;
32292;SDS011;43233;48.608;8.838;2022-07-23T09:33:06;6.33;;;5.73;;
32292;SDS011;43233;48.608;8.838;2022-07-23T09:35:43;5.53;;;5.03;;
32292;SDS011;43233;48.608;8.838;2022-07-23T09:38:10;6.47;;;5.47;;
32292;SDS011;43233;48.608;8.838;2022-07-23T09:40:36;5.60;;;5.10;;
32292;SDS011;43233;48.608;8.838;2022-07-23T09:43:02;6.97;;;4.60;;
32292;SDS011;43233;48.608;8.838;2022-07-23T09:45:27;4.30;;;4.00;;
32292;SDS011;43233;48.608;8.838;2022-07-23T09:48:09;5.27;;;4.87;;
32292;SDS011;43233;48.608;8.838;2022-07-23T09:50:39;5.60;;;5.10;;
32292;SDS011;43233;48.608;8.838;2022-07-23T09:53:08;5.83;;;4.40;;
32292;SDS011;43233;48.608;8.838;2022-07-23T09:55:48;5.03;;;4.57;;
32292;SDS011;43233;48.608;8.838;2022-07-23T09:58:14;7.00;;;5.20;;
32292;SDS011;43233;48.608;8.838;2022-07-23T10:00:40;5.13;;;4.73;;
32292;SDS011;43233;48.608;8.838;2022-07-23T10:03:07;5.40;;;4.90;;
32292;SDS011;43233;48.608;8.838;2022-07-23T10:05:34;5.43;;;4.93;;
32292;SDS011;43233;48.608;8.838;2022-07-23T10:08:02;5.70;;;5.20;;
32292;SDS011;43233;48.608;8.838;2022-07-23T10:10:28;8.17;;;5.60;;
32292;SDS011;43233;48.608;8.838;2022-07-23T10:12:54;5.50;;;4.83;;
32292;SDS011;43233;48.608;8.838;2022-07-23T10:15:35;5.20;;;4.77;;
32292;SDS011;43233;48.608;8.838;2022-07-23T10:18:02;5.23;;;4.73;;
32292;SDS011;43233;48.608;8.838;2022-07-23T10:20:28;5.47;;;4.97;;
32292;SDS011;43233;48.608;8.838;2022-07-23T10:22:58;5.70;;;4.47;;
32292;SDS011;43233;48.608;8.838;2022-07-23T10:25:34;6.27;;;5.63;;
32292;SDS011;43233;48.608;8.838;2022-07-23T10:28:56;6.40;;;5.80;;
32292;SDS011;43233;48.608;8.838;2022-07-23T10:31:04;5.10;;;4.70;;
32292;SDS011;43233;48.608;8.838;2022-07-23T10:36:59;6.00;;;5.23;;
32292;SDS011;43233;48.608;8.838;2022-07-23T10:39:32;5.00;;;4.60;;
32292;SDS011;43233;48.608;8.838;2022-07-23T10:44:38;6.53;;;5.83;;
32292;SDS011;43233;48.608;8.838;2022-07-23T10:47:12;5.60;;;5.00;;
32292;SDS011;43233;48.608;8.838;2022-07-23T10:50:29;5.10;;;4.53;;
32292;SDS011;43233;48.608;8.838;2022-07-23T10:55:41;6.63;;;5.43;;
32292;SDS011;43233;48.608;8.838;2022-07-23T10:58:09;5.27;;;4.77;;
32292;SDS011;43233;48.608;8.838;2022-07-23T11:00:36;5.40;;;4.90;;
32292;SDS011;43233;48.608;8.838;2022-07-23T11:03:03;6.37;;;5.17;;
32292;SDS011;43233;48.608;8.838;2022-07-23T11:10:38;4.77;;;4.40;;
32292;SDS011;43233;48.608;8.838;2022-07-23T11:37:03;6.37;;;4.33;;
32292;SDS011;43233;48.608;8.838;2022-07-23T11:39:31;5.20;;;4.80;;
32292;SDS011;43233;48.608;8.838;2022-07-23T11:41:57;6.80;;;4.57;;
32292;SDS011;43233;48.608;8.838;2022-07-23T11:44:27;5.63;;;5.10;;
32292;SDS011;43233;48.608;8.838;2022-07-23T11:46:55;5.50;;;4.73;;
32292;SDS011;43233;48.608;8.838;2022-07-23T11:49:22;6.13;;;4.70;;
32292;SDS011;43233;48.608;8.838;2022-07-23T11:54:34;6.40;;;5.30;;
32292;SDS011;43233;48.608;8.838;2022-07-23T11:57:02;4.97;;;4.47;;
32292;SDS011;43233;48.608;8.838;2022-07-23T11:59:31;6.57;;;5.57;;
32292;SDS011;43233;48.608;8.838;2022-07-23T12:04:43;7.90;;;7.10;;
32292;SDS011;43233;48.608;8.838;2022-07-23T12:09:59;5.27;;;4.87;;
32292;SDS011;43233;48.608;8.838;2022-07-23T12:12:36;5.03;;;4.53;;
32292;SDS011;43233;48.608;8.838;2022-07-23T12:15:06;5.60;;;4.80;;
32292;SDS011;43233;48.608;8.838;2022-07-23T12:17:34;7.30;;;4.80;;
32292;SDS011;43233;48.608;8.838;2022-07-23T12:20:06;4.87;;;4.47;;
32292;SDS011;43233;48.608;8.838;2022-07-23T12:22:35;4.83;;;4.40;;
32292;SDS011;43233;48.608;8.838;2022-07-23T12:25:07;4.90;;;4.50;;
32292;SDS011;43233;48.608;8.838;2022-07-23T12:27:37;6.20;;;5.30;;
32292;SDS011;43233;48.608;8.838;2022-07-23T12:30:22;7.00;;;5.67;;
32292;SDS011;43233;48.608;8.838;2022-07-23T12:32:49;5.50;;;5.00;;
32292;SDS011;43233;48.608;8.838;2022-07-23T12:35:17;5.47;;;4.97;;
32292;SDS011;43233;48.608;8.838;2022-07-23T12:37:44;5.93;;;5.33;;
32292;SDS011;43233;48.608;8.838;2022-07-23T12:40:18;8.67;;;5.50;;
32292;SDS011;43233;48.608;8.838;2022-07-23T12:42:45;4.77;;;4.30;;
32292;SDS011;43233;48.608;8.838;2022-07-23T12:45:13;8.90;;;5.13;;
32292;SDS011;43233;48.608;8.838;2022-07-23T12:53:03;6.17;;;5.57;;
32292;SDS011;43233;48.608;8.838;2022-07-23T12:55:36;5.60;;;5.10;;
32292;SDS011;43233;48.608;8.838;2022-07-23T12:58:24;6.07;;;5.40;;
32292;SDS011;43233;48.608;8.838;2022-07-23T13:00:53;6.60;;;6.00;;
32292;SDS011;43233;48.608;8.838;2022-07-23T13:03:31;5.93;;;4.90;;
32292;SDS011;43233;48.608;8.838;2022-07-23T13:05:59;8.10;;;5.23;;
32292;SDS011;43233;48.608;8.838;2022-07-23T13:08:26;5.93;;;4.97;;
32292;SDS011;43233;48.608;8.838;2022-07-23T13:10:54;5.63;;;4.67;;
32292;SDS011;43233;48.608;8.838;2022-07-23T13:13:21;5.27;;;4.77;;
32292;SDS011;43233;48.608;8.838;2022-07-23T13:15:48;4.97;;;4.47;;
32292;SDS011;43233;48.608;8.838;2022-07-23T13:18:13;5.60;;;5.03;;
32292;SDS011;43233;48.608;8.838;2022-07-23T13:20:39;5.73;;;5.23;;
32292;SDS011;43233;48.608;8.838;2022-07-23T13:23:06;5.60;;;5.10;;
32292;SDS011;43233;48.608;8.838;2022-07-23T13:25:32;5.70;;;5.20;;
32292;SDS011;43233;48.608;8.838;2022-07-23T13:27:58;6.30;;;5.10;;
32292;SDS011;43233;48.608;8.838;2022-07-23T13:30:24;5.50;;;5.00;;
32292;SDS011;43233;48.608;8.838;2022-07-23T13:32:49;6.73;;;5.40;;
32292;SDS011;43233;48.608;8.838;2022-07-23T13:35:15;5.30;;;4.90;;
32292;SDS011;43233;48.608;8.838;2022-07-23T13:37:41;5.37;;;4.87;;
32292;SDS011;43233;48.608;8.838;2022-07-23T13:40:07;5.73;;;4.87;;
32292;SDS011;43233;48.608;8.838;2022-07-23T13:42:33;6.67;;;5.37;;
32292;SDS011;43233;48.608;8.838;2022-07-23T13:44:59;5.57;;;5.10;;
32292;SDS011;43233;48.608;8.838;2022-07-23T13:47:24;6.80;;;5.73;;
32292;SDS011;43233;48.608;8.838;2022-07-23T13:49:50;4.93;;;4.53;;
32292;SDS011;43233;48.608;8.838;2022-07-23T13:52:16;5.40;;;5.00;;
32292;SDS011;43233;48.608;8.838;2022-07-23T13:54:41;5.60;;;5.10;;
32292;SDS011;43233;48.608;8.838;2022-07-23T13:57:07;5.30;;;4.90;;
32292;SDS011;43233;48.608;8.838;2022-07-23T13:59:34;5.50;;;5.00;;
32292;SDS011;43233;48.608;8.838;2022-07-23T14:02:01;5.00;;;4.60;;
32292;SDS011;43233;48.608;8.838;2022-07-23T14:04:30;7.23;;;5.30;;
32292;SDS011;43233;48.608;8.838;2022-07-23T14:06:56;5.57;;;5.03;;
32292;SDS011;43233;48.608;8.838;2022-07-23T14:09:22;7.93;;;6.60;;
32292;SDS011;43233;48.608;8.838;2022-07-23T14:11:48;16.90;;;10.30;;
32292;SDS011;43233;48.608;8.838;2022-07-23T14:14:15;13.57;;;8.27;;
32292;SDS011;43233;48.608;8.838;2022-07-23T14:16:42;9.30;;;6.40;;
32292;SDS011;43233;48.608;8.838;2022-07-23T14:19:08;5.77;;;5.27;;
32292;SDS011;43233;48.608;8.838;2022-07-23T14:21:34;6.93;;;4.73;;
32292;SDS011;43233;48.608;8.838;2022-07-23T14:23:59;6.10;;;5.50;;
32292;SDS011;43233;48.608;8.838;2022-07-23T14:26:25;10.07;;;5.33;;
32292;SDS011;43233;48.608;8.838;2022-07-23T14:28:52;8.27;;;5.70;;
32292;SDS011;43233;48.608;8.838;2022-07-23T14:31:17;6.17;;;5.57;;
32292;SDS011;43233;48.608;8.838;2022-07-23T14:33:43;5.90;;;5.30;;
32292;SDS011;43233;48.608;8.838;2022-07-23T14:36:08;6.07;;;5.53;;
32292;SDS011;43233;48.608;8.838;2022-07-23T14:38:34;5.67;;;5.17;;
32292;SDS011;43233;48.608;8.838;2022-07-23T14:41:00;7.17;;;5.23;;
32292;SDS011;43233;48.608;8.838;2022-07-23T14:43:25;7.70;;;5.07;;
32292;SDS011;43233;48.608;8.838;2022-07-23T14:45:51;5.97;;;5.37;;
32292;SDS011;43233;48.608;8.838;2022-07-23T14:48:17;5.57;;;5.03;;
32292;SDS011;43233;48.608;8.838;2022-07-23T14:50:42;6.10;;;5.60;;
32292;SDS011;43233;48.608;8.838;2022-07-23T14:53:08;5.90;;;5.40;;
32292;SDS011;43233;48.608;8.838;2022-07-23T14:55:34;5.70;;;5.20;;
32292;SDS011;43233;48.608;8.838;2022-07-23T14:58:00;10.73;;;5.93;;
32292;SDS011;43233;48.608;8.838;2022-07-23T15:00:25;5.60;;;5.10;;
32292;SDS011;43233;48.608;8.838;2022-07-23T15:02:52;6.50;;;5.33;;
32292;SDS011;43233;48.608;8.838;2022-07-23T15:05:18;5.83;;;5.30;;
32292;SDS011;43233;48.608;8.838;2022-07-23T15:07:44;6.10;;;5.60;;
32292;SDS011;43233;48.608;8.838;2022-07-23T15:10:10;6.73;;;5.63;;
32292;SDS011;43233;48.608;8.838;2022-07-23T15:12:36;6.80;;;6.10;;
32292;SDS011;43233;48.608;8.838;2022-07-23T15:15:03;5.80;;;5.30;;
32292;SDS011;43233;48.608;8.838;2022-07-23T15:17:29;6.37;;;4.70;;
32292;SDS011;43233;48.608;8.838;2022-07-23T15:19:55;6.13;;;5.23;;
32292;SDS011;43233;48.608;8.838;2022-07-23T15:22:21;6.47;;;5.10;;
32292;SDS011;43233;48.608;8.838;2022-07-23T15:24:47;5.57;;;4.93;;
32292;SDS011;43233;48.608;8.838;2022-07-23T15:27:12;9.43;;;4.73;;
32292;SDS011;43233;48.608;8.838;2022-07-23T15:29:38;8.27;;;6.17;;
32292;SDS011;43233;48.608;8.838;2022-07-23T15:32:04;7.43;;;5.10;;
32292;SDS011;43233;48.608;8.838;2022-07-23T15:34:30;5.30;;;4.83;;
32292;SDS011;43233;48.608;8.838;2022-07-23T15:36:56;5.63;;;5.13;;
32292;SDS011;43233;48.608;8.838;2022-07-23T15:39:26;5.17;;;4.70;;
32292;SDS011;43233;48.608;8.838;2022-07-23T15:41:51;5.93;;;4.90;;